Time;durP1;ratioP1;P1;durP2;ratioP2;P2;SDS_P1;SDS_P2;PMS_P1;PMS_P2;Temp;Humidity;BMP_temperature;BMP_pressure;BME280_temperature;BME280_humidity;BME280_pressure;Samples;Min_cycle;Max_cycle;Signal;HPM_P1;HPM_P2
2022/11/29 00:01:46;;;;;;;60.08;23.00;;;;;;;0.59;100.00;99398.08;2249117;79;21033;-58
2022/11/29 00:04:46;;;;;;;55.40;23.02;;;;;;;0.48;100.00;99395.63;2249027;79;20960;-58
2022/11/29 00:07:47;;;;;;;58.85;23.70;;;;;;;0.58;100.00;99398.53;2249150;79;21519;-58
2022/11/29 00:10:47;;;;;;;58.08;23.57;;;;;;;0.64;100.00;99397.16;2249003;79;21498;-58
2022/11/29 00:13:48;;;;;;;58.95;22.82;;;;;;;0.62;100.00;99391.17;2249084;79;21047;-58
2022/11/29 00:16:48;;;;;;;56.95;23.65;;;;;;;0.69;100.00;99394.09;2248938;79;21039;-59
2022/11/29 00:19:49;;;;;;;62.23;24.35;;;;;;;0.66;100.00;99396.72;2249386;79;21023;-58
2022/11/29 00:22:49;;;;;;;57.05;23.98;;;;;;;0.66;100.00;99390.27;2249359;79;20949;-59
2022/11/29 00:25:50;;;;;;;65.90;27.13;;;;;;;0.66;100.00;99397.14;2249217;79;21546;-58
2022/11/29 00:28:50;;;;;;;63.17;25.15;;;;;;;0.56;100.00;99400.70;2249462;79;21004;-58
2022/11/29 00:31:51;;;;;;;61.25;24.27;;;;;;;0.60;100.00;99397.22;2249440;79;20987;-58
2022/11/29 00:34:51;;;;;;;62.65;24.75;;;;;;;0.65;100.00;99398.87;2249322;79;21004;-58
2022/11/29 00:37:52;;;;;;;57.38;24.63;;;;;;;0.71;100.00;99392.79;2249341;79;20944;-58
2022/11/29 00:40:52;;;;;;;63.63;25.70;;;;;;;0.78;100.00;99390.55;2249244;79;21004;-58
2022/11/29 00:43:52;;;;;;;58.38;24.45;;;;;;;0.78;100.00;99394.88;2249198;79;21495;-58
2022/11/29 00:46:53;;;;;;;61.23;24.82;;;;;;;0.82;100.00;99392.64;2249459;79;20973;-58
2022/11/29 00:49:54;;;;;;;58.23;23.45;;;;;;;0.82;100.00;99396.09;2253710;79;20957;-58
2022/11/29 00:52:54;;;;;;;60.40;24.05;;;;;;;0.83;100.00;99393.06;2256493;79;20984;-58
2022/11/29 00:55:54;;;;;;;60.63;25.92;;;;;;;0.84;100.00;99399.50;2256382;79;21059;-58
2022/11/29 00:58:55;;;;;;;62.25;24.98;;;;;;;0.90;100.00;99398.58;2256260;79;21020;-58
2022/11/29 01:01:56;;;;;;;59.05;23.20;;;;;;;0.89;100.00;99390.84;2256605;79;21019;-58
2022/11/29 01:04:56;;;;;;;59.98;25.35;;;;;;;0.85;100.00;99384.88;2256292;79;20967;-59
2022/11/29 01:07:57;;;;;;;63.80;25.40;;;;;;;0.83;100.00;99383.61;2256465;79;20957;-58
2022/11/29 01:10:57;;;;;;;60.73;25.52;;;;;;;0.80;100.00;99388.79;2256509;79;20952;-58
2022/11/29 01:13:57;;;;;;;61.70;24.82;;;;;;;0.81;100.00;99379.33;2256296;79;20981;-59
2022/11/29 01:16:58;;;;;;;62.83;26.17;;;;;;;0.81;100.00;99375.45;2256371;79;21546;-58
2022/11/29 01:19:58;;;;;;;63.92;24.43;;;;;;;0.75;100.00;99380.68;2256388;79;21028;-58
2022/11/29 01:22:59;;;;;;;59.93;24.52;;;;;;;0.77;100.00;99371.20;2256500;79;20933;-58
2022/11/29 01:25:59;;;;;;;59.45;24.02;;;;;;;0.85;100.00;99364.22;2256281;79;20965;-58
2022/11/29 01:29:00;;;;;;;61.02;24.60;;;;;;;0.81;100.00;99362.55;2256582;79;20958;-58
2022/11/29 01:32:00;;;;;;;56.70;24.07;;;;;;;0.76;100.00;99361.32;2256330;79;20993;-58
2022/11/29 01:35:01;;;;;;;59.75;24.02;;;;;;;0.80;100.00;99354.38;2256369;79;21495;-59
2022/11/29 01:38:01;;;;;;;55.98;22.20;;;;;;;0.83;100.00;99364.24;2256035;79;20969;-58
2022/11/29 01:41:01;;;;;;;60.70;24.85;;;;;;;0.81;100.00;99363.84;2256357;79;21075;-58
2022/11/29 01:44:02;;;;;;;55.33;23.73;;;;;;;0.65;100.00;99363.17;2255899;79;21048;-58
2022/11/29 01:47:03;;;;;;;64.30;26.00;;;;;;;0.64;100.00;99360.16;2256488;79;20964;-58
2022/11/29 01:50:03;;;;;;;62.43;25.00;;;;;;;0.59;100.00;99360.23;2252018;79;21031;-59
2022/11/29 01:53:03;;;;;;;63.92;25.25;;;;;;;0.65;100.00;99351.56;2249342;79;20972;-58
2022/11/29 01:56:04;;;;;;;63.92;26.40;;;;;;;0.68;100.00;99348.48;2249231;79;20980;-59
2022/11/29 01:59:05;;;;;;;55.75;23.32;;;;;;;0.75;100.00;99349.27;2249212;79;21562;-59
2022/11/29 02:02:05;;;;;;;62.88;25.27;;;;;;;0.82;100.00;99350.03;2248993;79;21044;-58
2022/11/29 02:05:06;;;;;;;65.85;26.27;;;;;;;0.81;100.00;99352.22;2249394;79;21028;-58
2022/11/29 02:08:06;;;;;;;61.00;24.05;;;;;;;0.88;100.00;99352.55;2249472;79;20960;-58
2022/11/29 02:11:07;;;;;;;65.00;25.37;;;;;;;0.80;100.00;99350.50;2249119;79;20984;-58
2022/11/29 02:14:07;;;;;;;61.50;23.77;;;;;;;0.87;100.00;99354.71;2249239;79;20978;-58
2022/11/29 02:17:08;;;;;;;55.20;22.62;;;;;;;0.90;100.00;99353.82;2249092;79;21542;-58
2022/11/29 02:20:09;;;;;;;62.75;25.32;;;;;;;1.05;100.00;99352.33;2249503;79;20964;-58
2022/11/29 02:23:09;;;;;;;67.35;26.97;;;;;;;1.09;100.00;99351.39;2249301;79;20997;-59
2022/11/29 02:26:09;;;;;;;59.10;24.92;;;;;;;1.07;100.00;99354.89;2249363;79;20956;-58
2022/11/29 02:29:10;;;;;;;60.88;25.23;;;;;;;1.07;100.00;99360.90;2249063;79;20996;-58
2022/11/29 02:32:10;;;;;;;57.48;23.30;;;;;;;1.02;100.00;99357.52;2249202;79;21531;-58
2022/11/29 02:35:11;;;;;;;58.75;23.38;;;;;;;1.07;100.00;99360.90;2249175;79;21040;-58
2022/11/29 02:38:12;;;;;;;55.58;21.93;;;;;;;1.04;100.00;99363.53;2248883;79;21005;-58
2022/11/29 02:41:12;;;;;;;55.78;22.93;;;;;;;1.03;100.00;99365.27;2249420;79;20961;-58
2022/11/29 02:44:13;;;;;;;57.53;23.05;;;;;;;0.88;100.00;99365.88;2249354;79;20941;-58
2022/11/29 02:47:13;;;;;;;53.50;21.52;;;;;;;0.89;100.00;99370.19;2249095;79;21025;-58
2022/11/29 02:50:13;;;;;;;57.65;22.58;;;;;;;0.93;100.00;99373.99;2253131;79;21474;-58
2022/11/29 02:53:14;;;;;;;59.93;23.47;;;;;;;0.95;100.00;99372.27;2256248;79;20991;-58
2022/11/29 02:56:14;;;;;;;56.50;23.45;;;;;;;0.93;100.00;99367.98;2256341;79;21023;-58
2022/11/29 02:59:15;;;;;;;58.48;23.27;;;;;;;1.00;100.00;99371.75;2256403;79;21005;-59
2022/11/29 03:02:16;;;;;;;55.67;21.90;;;;;;;0.87;100.00;99374.08;2256257;79;21019;-58
2022/11/29 03:05:16;;;;;;;53.95;23.02;;;;;;;0.88;100.00;99377.50;2256280;79;21535;-58
2022/11/29 03:08:17;;;;;;;56.15;22.05;;;;;;;0.97;100.00;99383.86;2256264;79;20956;-58
2022/11/29 03:11:17;;;;;;;53.08;20.15;;;;;;;0.83;100.00;99389.19;2256330;79;21036;-58
2022/11/29 03:14:18;;;;;;;55.80;21.52;;;;;;;0.81;100.00;99379.33;2256372;79;20977;-59
2022/11/29 03:17:18;;;;;;;58.23;22.77;;;;;;;0.76;100.00;99391.44;2256264;79;20956;-58
2022/11/29 03:20:19;;;;;;;58.40;21.93;;;;;;;0.59;100.00;99391.20;2256280;79;20956;-58
2022/11/29 03:23:19;;;;;;;53.35;21.82;;;;;;;0.59;100.00;99396.79;2256180;79;21547;-59
2022/11/29 03:26:19;;;;;;;54.27;22.52;;;;;;;0.63;100.00;99402.34;2256121;79;21007;-58
2022/11/29 03:29:20;;;;;;;53.68;22.00;;;;;;;0.73;100.00;99396.64;2256386;79;21063;-58
2022/11/29 03:32:20;;;;;;;54.42;21.55;;;;;;;0.80;100.00;99402.16;2256434;79;20960;-58
2022/11/29 03:35:21;;;;;;;59.93;24.27;;;;;;;0.80;100.00;99391.82;2256446;79;20972;-58
2022/11/29 03:38:21;;;;;;;61.65;23.85;;;;;;;0.69;100.00;99395.84;2255771;79;21032;-58
2022/11/29 03:41:22;;;;;;;59.13;23.92;;;;;;;0.65;100.00;99400.61;2256182;79;21467;-58
2022/11/29 03:44:22;;;;;;;54.80;23.07;;;;;;;0.52;100.00;99399.90;2256248;79;20991;-58
2022/11/29 03:47:23;;;;;;;56.65;23.55;;;;;;;0.49;100.00;99398.20;2256125;79;21000;-59
2022/11/29 03:50:23;;;;;;;58.95;24.70;;;;;;;0.56;100.00;99404.58;2256271;79;21027;-58
2022/11/29 03:53:24;;;;;;;61.00;24.95;;;;;;;0.54;100.00;99407.63;2256010;79;21039;-58
2022/11/29 03:56:24;;;;;;;57.93;24.80;;;;;;;0.60;100.00;99404.96;2256421;79;21037;-58
2022/11/29 03:59:25;;;;;;;62.88;24.15;;;;;;;0.65;100.00;99416.95;2256320;79;21495;-58
2022/11/29 04:02:26;;;;;;;59.30;22.93;;;;;;;0.52;100.00;99420.55;2256415;79;21079;-58
2022/11/29 04:05:26;;;;;;;57.08;21.75;;;;;;;0.60;100.00;99420.01;2256263;79;21023;-59
2022/11/29 04:08:27;;;;;;;62.75;23.12;;;;;;;0.76;100.00;99418.14;2256259;79;21095;-59
2022/11/29 04:11:28;;;;;;;55.30;22.75;;;;;;;0.65;100.00;99420.83;2256395;79;21554;-58
2022/11/29 04:14:28;;;;;;;54.30;22.25;;;;;;;0.57;100.00;99423.92;2256267;79;20974;-58
2022/11/29 04:17:28;;;;;;;49.67;21.20;;;;;;;0.67;100.00;99428.55;2256549;79;20964;-58
2022/11/29 04:20:29;;;;;;;53.78;22.40;;;;;;;0.74;100.00;99429.34;2256329;79;21038;-58
2022/11/29 04:23:29;;;;;;;55.17;22.77;;;;;;;0.75;100.00;99424.58;2256529;79;20975;-58
2022/11/29 04:26:30;;;;;;;54.65;21.73;;;;;;;0.75;100.00;99425.87;2256298;79;20948;-58
2022/11/29 04:29:30;;;;;;;55.50;22.17;;;;;;;0.72;100.00;99429.37;2256422;79;21862;-58
2022/11/29 04:32:31;;;;;;;54.50;20.92;;;;;;;0.76;100.00;99427.17;2256424;79;21068;-58
2022/11/29 04:35:31;;;;;;;59.80;22.77;;;;;;;0.75;100.00;99431.91;2256511;79;20979;-58
2022/11/29 04:38:32;;;;;;;55.17;21.82;;;;;;;0.62;100.00;99438.94;2256084;79;21479;-59
2022/11/29 04:41:32;;;;;;;52.45;22.42;;;;;;;0.58;100.00;99433.83;2256609;79;20968;-58
2022/11/29 04:44:33;;;;;;;58.25;22.90;;;;;;;0.53;100.00;99440.75;2256536;79;20948;-58
2022/11/29 04:47:33;;;;;;;57.25;23.40;;;;;;;0.61;100.00;99435.08;2256028;79;21007;-58
2022/11/29 04:50:34;;;;;;;58.25;23.20;;;;;;;0.64;100.00;99439.77;2252493;79;21084;-58
2022/11/29 04:53:35;;;;;;;56.42;21.73;;;;;;;0.59;100.00;99440.27;2249261;79;21598;-58
2022/11/29 04:56:35;;;;;;;60.25;23.80;;;;;;;0.49;100.00;99450.27;2249555;79;21031;-58
2022/11/29 04:59:36;;;;;;;57.03;23.07;;;;;;;0.61;100.00;99450.13;2249351;79;21041;-58
2022/11/29 05:02:36;;;;;;;55.23;22.60;;;;;;;0.53;100.00;99452.37;2249230;79;20961;-58
2022/11/29 05:05:37;;;;;;;58.48;24.43;;;;;;;0.68;100.00;99456.94;2249292;79;21591;-58
2022/11/29 05:08:38;;;;;;;53.78;23.42;;;;;;;0.58;100.00;99467.39;2249155;79;21017;-59
2022/11/29 05:11:38;;;;;;;60.95;24.67;;;;;;;0.56;100.00;99458.78;2249008;79;21000;-59
2022/11/29 05:14:39;;;;;;;62.85;24.52;;;;;;;0.57;100.00;99460.06;2249112;79;21055;-58
2022/11/29 05:17:39;;;;;;;61.35;24.20;;;;;;;0.60;100.00;99467.77;2249281;79;20961;-58
2022/11/29 05:20:40;;;;;;;58.85;23.62;;;;;;;0.67;100.00;99462.96;2248931;79;21044;-58
2022/11/29 05:23:40;;;;;;;56.10;23.32;;;;;;;0.66;100.00;99471.60;2249338;79;21483;-58
2022/11/29 05:26:41;;;;;;;61.48;24.43;;;;;;;0.73;100.00;99468.95;2249274;79;20992;-58
2022/11/29 05:29:41;;;;;;;60.52;23.92;;;;;;;0.79;100.00;99473.63;2249158;79;21523;-58
2022/11/29 05:32:42;;;;;;;59.08;23.38;;;;;;;0.86;100.00;99480.42;2249310;79;20999;-59
2022/11/29 05:35:42;;;;;;;60.25;23.92;;;;;;;0.90;100.00;99479.09;2249231;79;21079;-58
2022/11/29 05:38:44;;;;;;;59.73;23.52;;;;;;;0.87;100.00;99481.27;2249054;79;21092;-58
2022/11/29 05:41:44;;;;;;;58.80;22.60;;;;;;;0.92;100.00;99476.92;2249044;79;21100;-58
2022/11/29 05:44:45;;;;;;;74.75;30.80;;;;;;;0.91;100.00;99485.53;2249315;79;21550;-58
2022/11/29 05:47:45;;;;;;;63.23;25.82;;;;;;;0.96;100.00;99490.64;2249391;79;20985;-58
2022/11/29 05:50:46;;;;;;;55.33;21.45;;;;;;;1.07;100.00;99494.41;2252502;79;21044;-58
2022/11/29 05:53:46;;;;;;;57.33;22.35;;;;;;;0.99;100.00;99496.65;2256479;79;20948;-58
2022/11/29 05:56:47;;;;;;;58.83;22.17;;;;;;;0.98;100.00;99501.39;2256486;79;20956;-58
2022/11/29 05:59:47;;;;;;;55.85;22.87;;;;;;;0.92;100.00;99503.17;2256183;79;20981;-58
2022/11/29 06:02:48;;;;;;;61.73;24.72;;;;;;;1.01;100.00;99499.21;2256296;79;21499;-58
2022/11/29 06:05:48;;;;;;;55.55;22.85;;;;;;;1.01;100.00;99505.67;2256111;79;21513;-58
2022/11/29 06:08:49;;;;;;;57.78;23.32;;;;;;;0.97;100.00;99499.67;2256291;79;21003;-58
2022/11/29 06:11:49;;;;;;;55.60;23.40;;;;;;;0.94;100.00;99507.45;2256532;79;20995;-58
2022/11/29 06:14:50;;;;;;;56.83;22.65;;;;;;;0.89;100.00;99514.83;2256184;79;21051;-58
2022/11/29 06:17:51;;;;;;;60.38;25.17;;;;;;;0.81;100.00;99518.80;2256314;79;20960;-58
2022/11/29 06:20:52;;;;;;;55.65;22.42;;;;;;;0.95;100.00;99516.92;2256144;79;21044;-58
2022/11/29 06:23:52;;;;;;;59.00;24.55;;;;;;;0.96;100.00;99519.94;2256440;79;20972;-58
2022/11/29 06:26:53;;;;;;;58.52;22.85;;;;;;;1.03;100.00;99522.88;2256336;79;20999;-58
2022/11/29 06:29:54;;;;;;;59.38;24.63;;;;;;;1.07;100.00;99524.97;2256142;79;21035;-58
2022/11/29 06:32:54;;;;;;;57.08;22.93;;;;;;;1.09;100.00;99535.28;2256265;79;21550;-59
2022/11/29 06:35:55;;;;;;;52.75;21.68;;;;;;;0.96;100.00;99534.15;2256137;79;21478;-58
2022/11/29 06:38:55;;;;;;;56.65;22.85;;;;;;;0.79;100.00;99536.02;2255955;79;21098;-58
2022/11/29 06:41:56;;;;;;;54.27;20.85;;;;;;;0.73;100.00;99539.52;2256210;79;21096;-58
2022/11/29 06:44:57;;;;;;;54.77;21.35;;;;;;;0.71;100.00;99537.40;2256420;79;20987;-58
2022/11/29 06:47:57;;;;;;;53.70;21.97;;;;;;;0.73;100.00;99537.38;2256188;79;20956;-58
2022/11/29 06:50:58;;;;;;;54.77;23.12;;;;;;;0.89;100.00;99544.13;2252858;79;21499;-58
2022/11/29 06:53:58;;;;;;;60.45;23.07;;;;;;;0.93;100.00;99544.94;2249149;79;21523;-58
2022/11/29 06:56:59;;;;;;;56.33;23.25;;;;;;;0.89;100.00;99548.00;2249043;79;20957;-58
2022/11/29 06:59:59;;;;;;;56.02;21.93;;;;;;;0.83;100.00;99551.50;2249442;79;20968;-58
2022/11/29 07:02:59;;;;;;;54.55;21.95;;;;;;;0.87;100.00;99552.30;2249381;79;20952;-58
2022/11/29 07:06:00;;;;;;;56.40;22.27;;;;;;;0.85;100.00;99548.89;2249076;79;21011;-58
2022/11/29 07:09:00;;;;;;;54.93;22.02;;;;;;;0.90;100.00;99548.84;2249173;79;20944;-58
2022/11/29 07:12:01;;;;;;;53.60;21.40;;;;;;;0.90;100.00;99549.69;2249055;79;21455;-59
2022/11/29 07:15:01;;;;;;;53.13;22.30;;;;;;;0.99;100.00;99550.91;2249144;79;21063;-59
2022/11/29 07:18:02;;;;;;;52.73;21.55;;;;;;;0.96;100.00;99557.40;2249434;79;20964;-58
2022/11/29 07:21:02;;;;;;;54.95;23.30;;;;;;;1.00;100.00;99558.20;2249230;79;21056;-58
2022/11/29 07:24:03;;;;;;;51.85;20.68;;;;;;;1.04;100.00;99564.61;2249177;79;21044;-58
2022/11/29 07:27:03;;;;;;;54.73;21.82;;;;;;;1.09;100.00;99564.55;2249128;79;21041;-58
2022/11/29 07:30:04;;;;;;;55.23;22.10;;;;;;;1.08;100.00;99565.45;2248943;79;20984;-58
2022/11/29 07:33:05;;;;;;;54.93;22.32;;;;;;;1.19;100.00;99567.91;2248842;79;21036;-58
2022/11/29 07:36:05;;;;;;;55.43;21.33;;;;;;;1.16;100.00;99566.20;2249252;79;20991;-58
2022/11/29 07:39:06;;;;;;;55.17;21.57;;;;;;;1.20;100.00;99564.45;2248687;79;21028;-58
2022/11/29 07:42:06;;;;;;;56.85;23.02;;;;;;;1.31;100.00;99563.06;2249139;79;20980;-58
2022/11/29 07:45:07;;;;;;;56.23;23.92;;;;;;;1.44;100.00;99564.61;2249152;79;21503;-58
2022/11/29 07:48:08;;;;;;;56.68;22.87;;;;;;;1.42;100.00;99568.93;2248923;79;21029;-58
2022/11/29 07:51:08;;;;;;;61.58;23.80;;;;;;;1.36;100.00;99572.89;2251992;79;20985;-58
2022/11/29 07:54:09;;;;;;;53.63;22.80;;;;;;;1.34;100.00;99577.23;2256399;79;20973;-59
2022/11/29 07:57:09;;;;;;;57.95;23.98;;;;;;;1.44;100.00;99577.54;2256458;79;20929;-58
2022/11/29 08:00:10;;;;;;;53.65;22.70;;;;;;;1.49;100.00;99577.48;2256219;79;20980;-58
2022/11/29 08:03:10;;;;;;;54.53;22.40;;;;;;;1.53;100.00;99580.00;2256190;79;20949;-58
2022/11/29 08:06:11;;;;;;;53.70;22.75;;;;;;;1.50;100.00;99580.05;2255903;79;21432;-58
2022/11/29 08:09:11;;;;;;;50.73;21.52;;;;;;;1.45;100.00;99587.44;2256107;79;20984;-59
2022/11/29 08:12:12;;;;;;;57.15;22.40;;;;;;;1.50;100.00;99586.51;2256401;79;21000;-59
2022/11/29 08:15:12;;;;;;;57.73;23.42;;;;;;;1.51;100.00;99589.52;2256487;79;20953;-58
2022/11/29 08:18:13;;;;;;;58.63;22.93;;;;;;;1.64;100.00;99586.35;2256357;79;21087;-58
2022/11/29 08:21:16;;;;;;;56.30;23.15;;;;;;;1.53;100.00;99586.92;2256335;79;20964;-59
2022/11/29 08:24:16;;;;;;;55.05;23.12;;;;;;;1.54;100.00;99585.60;2229977;79;21517;-58
2022/11/29 08:27:16;;;;;;;53.33;21.33;;;;;;;1.65;100.00;99586.78;2256388;79;20969;-58
2022/11/29 08:30:17;;;;;;;54.77;23.35;;;;;;;1.44;100.00;99582.71;2256119;79;20964;-59
2022/11/29 08:33:18;;;;;;;53.33;22.27;;;;;;;1.40;100.00;99590.08;2256163;79;21108;-58
2022/11/29 08:36:18;;;;;;;55.95;22.30;;;;;;;1.56;100.00;99590.30;2256160;79;20979;-58
2022/11/29 08:39:19;;;;;;;52.27;21.02;;;;;;;1.65;100.00;99595.83;2256195;79;21000;-59
2022/11/29 08:42:19;;;;;;;52.48;22.50;;;;;;;1.56;100.00;99594.19;2256445;79;21024;-58
2022/11/29 08:45:20;;;;;;;54.20;21.70;;;;;;;1.55;100.00;99595.08;2256503;79;20960;-58
2022/11/29 08:48:20;;;;;;;54.55;21.52;;;;;;;1.50;100.00;99591.68;2256418;79;21114;-58
2022/11/29 08:51:21;;;;;;;50.80;20.27;;;;;;;1.56;100.00;99600.65;2253166;79;21523;-58
2022/11/29 08:54:21;;;;;;;46.68;20.20;;;;;;;1.45;100.00;99599.07;2249157;79;21068;-58
2022/11/29 08:57:22;;;;;;;53.05;21.37;;;;;;;1.45;100.00;99599.95;2249591;79;20991;-59
2022/11/29 09:00:22;;;;;;;53.08;21.80;;;;;;;1.58;100.00;99600.66;2249310;79;21019;-58
2022/11/29 09:06:25;;;;;;;;;;;;;;;1.44;100.00;99599.94;2223164;79;21020;-58
2022/11/29 09:09:25;;;;;;;57.13;22.42;;;;;;;1.49;100.00;99596.87;2249371;79;20148;-58
2022/11/29 09:12:26;;;;;;;56.88;22.45;;;;;;;1.59;100.00;99596.33;2248983;79;21497;-59
2022/11/29 09:15:26;;;;;;;52.48;21.05;;;;;;;1.70;100.00;99599.20;2249142;79;20980;-58
2022/11/29 09:18:27;;;;;;;58.15;23.50;;;;;;;1.74;100.00;99601.33;2249426;79;21019;-59
2022/11/29 09:21:28;;;;;;;60.52;25.52;;;;;;;1.78;100.00;99600.41;2249130;79;20956;-58
2022/11/29 09:24:28;;;;;;;52.67;21.80;;;;;;;1.78;100.00;99599.53;2249274;79;21043;-58
2022/11/29 09:27:29;;;;;;;58.85;23.15;;;;;;;1.82;100.00;99596.88;2249104;79;21459;-58
2022/11/29 09:30:30;;;;;;;55.78;22.67;;;;;;;1.80;100.00;99597.81;2249355;79;21016;-58
2022/11/29 09:33:31;;;;;;;55.98;23.35;;;;;;;1.88;100.00;99599.41;2249315;79;21083;-58
2022/11/29 09:36:31;;;;;;;53.02;22.60;;;;;;;1.91;100.00;99597.20;2249257;79;20976;-58
2022/11/29 09:39:32;;;;;;;59.05;24.12;;;;;;;1.90;100.00;99602.82;2248785;79;21542;-58
2022/11/29 09:42:33;;;;;;;51.30;22.02;;;;;;;2.01;100.00;99598.81;2249255;79;21016;-58
2022/11/29 09:45:33;;;;;;;51.80;21.73;;;;;;;2.02;100.00;99600.95;2249412;79;20930;-59
2022/11/29 09:48:34;;;;;;;55.30;23.45;;;;;;;1.97;100.00;99595.84;2248860;79;20973;-58
2022/11/29 09:51:34;;;;;;;53.92;22.15;;;;;;;1.98;100.00;99600.13;2251921;79;21063;-58
2022/11/29 09:54:34;;;;;;;56.02;23.10;;;;;;;2.01;100.00;99600.11;2256320;79;21589;-58
2022/11/29 09:57:35;;;;;;;56.75;23.30;;;;;;;2.02;100.00;99596.62;2256372;79;21055;-58
2022/11/29 10:00:35;;;;;;;57.55;23.35;;;;;;;2.06;100.00;99587.94;2256447;79;21007;-58
2022/11/29 10:03:36;;;;;;;57.40;25.35;;;;;;;2.17;100.00;99590.81;2256445;79;21007;-58
2022/11/29 10:06:37;;;;;;;54.55;23.25;;;;;;;2.14;100.00;99597.33;2256587;79;20960;-58
2022/11/29 10:09:38;;;;;;;60.03;23.50;;;;;;;2.12;100.00;99592.62;2256349;79;21104;-58
2022/11/29 10:12:38;;;;;;;57.98;24.25;;;;;;;2.01;100.00;99597.52;2256287;79;20929;-58
2022/11/29 10:15:38;;;;;;;54.38;23.10;;;;;;;2.00;100.00;99595.80;2256260;79;20968;-59
2022/11/29 10:18:39;;;;;;;61.80;27.10;;;;;;;2.04;100.00;99600.48;2256432;79;20933;-58
2022/11/29 10:21:40;;;;;;;60.08;25.70;;;;;;;2.13;100.00;99598.23;2256266;79;20933;-58
2022/11/29 10:24:40;;;;;;;56.65;24.47;;;;;;;2.12;100.00;99596.51;2256171;79;20937;-58
2022/11/29 10:27:41;;;;;;;58.50;25.20;;;;;;;2.07;100.00;99594.84;2256311;79;21515;-58
2022/11/29 10:30:41;;;;;;;56.50;25.50;;;;;;;2.20;100.00;99592.93;2256129;79;20929;-59
2022/11/29 10:33:41;;;;;;;56.23;24.43;;;;;;;2.27;100.00;99592.41;2256419;79;21090;-58
2022/11/29 10:36:42;;;;;;;57.17;25.05;;;;;;;2.25;100.00;99584.64;2256366;79;20988;-58
2022/11/29 10:39:43;;;;;;;58.42;25.68;;;;;;;2.33;100.00;99582.37;2256117;79;21017;-58
2022/11/29 10:45:49;;;;;;;57.67;24.47;;;;;;;2.60;100.00;99584.97;2229767;79;20988;-58
2022/11/29 10:48:48;;;;;;;61.42;26.75;;;;;;;2.57;100.00;99583.72;2229785;79;20977;-58
2022/11/29 10:51:49;;;;;;;57.55;24.85;;;;;;;2.57;100.00;99584.60;2256053;79;21539;-58
2022/11/29 10:54:49;;;;;;;56.20;24.02;;;;;;;2.62;100.00;99585.81;2256123;79;20976;-58
2022/11/29 10:57:50;;;;;;;53.73;23.45;;;;;;;2.71;100.00;99581.77;2256389;79;20996;-58
2022/11/29 11:00:50;;;;;;;60.67;25.40;;;;;;;2.83;100.00;99579.84;2256445;79;20917;-58
2022/11/29 11:03:51;;;;;;;57.80;25.52;;;;;;;2.73;100.00;99573.54;2256063;79;20969;-59
2022/11/29 11:06:52;;;;;;;56.88;24.50;;;;;;;2.64;100.00;99581.91;2256182;79;20968;-58
2022/11/29 11:09:52;;;;;;;59.80;25.15;;;;;;;2.64;100.00;99579.31;2256193;79;21622;-58
2022/11/29 11:12:53;;;;;;;57.98;26.10;;;;;;;2.53;100.00;99579.05;2256274;79;20941;-58
2022/11/29 11:15:53;;;;;;;62.53;28.27;;;;;;;2.55;100.00;99581.16;2256482;79;21015;-59
2022/11/29 11:18:54;;;;;;;59.77;26.12;;;;;;;2.58;100.00;99580.27;2256614;79;20948;-59
2022/11/29 11:21:54;;;;;;;58.87;25.48;;;;;;;2.67;100.00;99580.13;2256216;79;20957;-58
2022/11/29 11:24:54;;;;;;;55.55;23.55;;;;;;;2.60;100.00;99581.95;2256371;79;21025;-59
2022/11/29 11:27:55;;;;;;;56.68;24.23;;;;;;;2.63;100.00;99585.36;2256214;79;21549;-58
2022/11/29 11:30:55;;;;;;;51.60;22.50;;;;;;;2.63;100.00;99580.18;2256335;79;21060;-59
2022/11/29 11:33:56;;;;;;;48.38;22.77;;;;;;;2.64;100.00;99581.45;2256359;79;20995;-59
2022/11/29 11:36:56;;;;;;;55.80;24.67;;;;;;;2.59;100.00;99588.45;2256182;79;20998;-58
2022/11/29 11:39:57;;;;;;;53.30;22.75;;;;;;;2.59;100.00;99581.98;2255771;79;21070;-59
2022/11/29 11:42:58;;;;;;;56.30;25.35;;;;;;;2.57;100.00;99587.61;2256196;79;21482;-59
2022/11/29 11:45:58;;;;;;;56.55;25.65;;;;;;;2.56;100.00;99580.74;2256528;79;20964;-59
2022/11/29 11:48:59;;;;;;;50.05;22.02;;;;;;;2.68;100.00;99592.62;2256404;79;21033;-58
2022/11/29 11:51:59;;;;;;;53.48;22.48;;;;;;;2.69;100.00;99586.12;2256245;79;21008;-58
2022/11/29 11:55:00;;;;;;;51.83;22.40;;;;;;;2.64;100.00;99596.99;2256140;79;20988;-58
2022/11/29 11:58:00;;;;;;;46.45;20.40;;;;;;;2.70;100.00;99595.62;2256233;79;21474;-59
2022/11/29 12:01:01;;;;;;;49.83;21.82;;;;;;;2.72;100.00;99597.73;2256066;79;21477;-59
2022/11/29 12:04:02;;;;;;;50.15;21.73;;;;;;;2.68;100.00;99600.41;2256382;79;21016;-58
2022/11/29 12:07:03;;;;;;;52.15;22.17;;;;;;;2.69;100.00;99599.08;2256098;79;20984;-58
2022/11/29 12:10:03;;;;;;;49.80;21.85;;;;;;;2.76;100.00;99602.44;2256187;79;20925;-59
2022/11/29 12:13:04;;;;;;;52.43;22.62;;;;;;;2.67;100.00;99602.15;2256282;79;21417;-58
2022/11/29 12:16:04;;;;;;;52.00;21.23;;;;;;;2.44;100.00;99597.31;2256276;79;20941;-58
2022/11/29 12:19:04;;;;;;;49.35;21.10;;;;;;;2.24;100.00;99602.37;2256571;79;20945;-58
2022/11/29 12:22:05;;;;;;;50.90;21.20;;;;;;;2.08;100.00;99606.91;2256520;79;21254;-59
2022/11/29 12:25:06;;;;;;;48.55;21.68;;;;;;;2.01;100.00;99603.98;2256410;79;21048;-58
2022/11/29 12:28:06;;;;;;;52.30;23.92;;;;;;;2.07;100.00;99609.52;2256425;79;21053;-58
2022/11/29 12:31:07;;;;;;;52.53;22.73;;;;;;;2.40;100.00;99611.20;2256406;79;21002;-59
2022/11/29 12:34:07;;;;;;;52.20;22.95;;;;;;;2.37;100.00;99608.22;2256376;79;21035;-58
2022/11/29 12:37:08;;;;;;;51.98;23.07;;;;;;;2.27;100.00;99604.06;2256403;79;21022;-58
2022/11/29 12:40:08;;;;;;;53.90;21.93;;;;;;;2.25;100.00;99612.27;2256487;79;20926;-58
2022/11/29 12:43:09;;;;;;;55.83;22.67;;;;;;;2.33;100.00;99616.91;2255941;79;20973;-58
2022/11/29 12:46:10;;;;;;;61.05;24.40;;;;;;;2.30;100.00;99618.25;2256437;79;21091;-59
2022/11/29 12:49:10;;;;;;;57.62;23.30;;;;;;;2.08;100.00;99621.14;2256408;79;20961;-58
2022/11/29 12:52:11;;;;;;;55.60;24.07;;;;;;;2.12;100.00;99620.64;2254003;79;21064;-59
2022/11/29 12:55:11;;;;;;;53.33;22.95;;;;;;;2.10;100.00;99619.83;2249420;79;20972;-58
2022/11/29 12:58:12;;;;;;;50.50;21.95;;;;;;;2.06;100.00;99620.73;2249024;79;21016;-59
2022/11/29 13:01:13;;;;;;;51.53;21.85;;;;;;;1.99;100.00;99617.37;2249309;79;20929;-59
2022/11/29 13:04:14;;;;;;;54.00;23.77;;;;;;;1.98;100.00;99620.83;2249482;79;21552;-58
2022/11/29 13:07:14;;;;;;;53.05;23.22;;;;;;;1.98;100.00;99619.53;2249440;79;21190;-59
2022/11/29 13:10:15;;;;;;;52.85;22.45;;;;;;;1.93;100.00;99616.16;2249284;79;21319;-58
2022/11/29 13:13:15;;;;;;;53.45;23.07;;;;;;;2.03;100.00;99622.08;2249448;79;20996;-58
2022/11/29 13:16:16;;;;;;;49.63;21.12;;;;;;;2.03;100.00;99622.92;2249531;79;21051;-58
2022/11/29 13:19:16;;;;;;;53.48;24.25;;;;;;;2.13;100.00;99625.41;2249427;79;20957;-58
2022/11/29 13:22:17;;;;;;;55.20;24.05;;;;;;;2.21;100.00;99630.02;2249258;79;20997;-58
2022/11/29 13:25:17;;;;;;;57.55;24.35;;;;;;;2.25;100.00;99624.77;2249222;79;21035;-59
2022/11/29 13:28:19;;;;;;;57.70;24.15;;;;;;;2.27;100.00;99630.37;2249317;79;20965;-58
2022/11/29 13:31:20;;;;;;;56.73;22.58;;;;;;;2.24;100.00;99636.02;2249443;79;21060;-58
2022/11/29 13:34:22;;;;;;;57.63;24.90;;;;;;;2.17;100.00;99631.80;2249777;79;21020;-58
2022/11/29 13:37:23;;;;;;;56.53;24.57;;;;;;;2.25;100.00;99636.86;2249546;79;21329;-58
2022/11/29 13:40:25;;;;;;;53.25;22.13;;;;;;;2.15;100.00;99638.72;2249241;79;21026;-58
2022/11/29 13:43:26;;;;;;;51.25;22.40;;;;;;;2.25;100.00;99642.88;2249527;79;21558;-58
2022/11/29 13:46:28;;;;;;;45.55;20.02;;;;;;;2.03;100.00;99650.09;2249398;79;21103;-58
2022/11/29 13:49:30;;;;;;;49.53;21.20;;;;;;;2.02;100.00;99652.70;2249524;79;21036;-58
2022/11/29 13:52:31;;;;;;;46.88;20.57;;;;;;;1.96;100.00;99647.62;2249027;79;21052;-59
2022/11/29 13:55:33;;;;;;;49.15;21.97;;;;;;;2.01;100.00;99650.56;2249512;79;21542;-58